Time;durP1;ratioP1;P1;durP2;ratioP2;P2;SDS_P1;SDS_P2;PMS_P1;PMS_P2;Temp;Humidity;BMP_temperature;BMP_pressure;BME280_temperature;BME280_humidity;BME280_pressure;Samples;Min_cycle;Max_cycle;Signal;HPM_P1;HPM_P2
2023/02/12 00:02:09;;;;;;;26.10;13.90;;;;;;;7.30;100.00;102833.19;107775;1253;61435;-75
2023/02/12 00:04:37;;;;;;;22.80;13.80;;;;;;;7.28;100.00;102831.20;107592;1253;60498;-75
2023/02/12 00:07:04;;;;;;;28.40;13.60;;;;;;;7.29;100.00;102827.77;108894;1254;72646;-77
2023/02/12 00:09:31;;;;;;;22.90;12.40;;;;;;;7.29;100.00;102831.86;108353;1257;69701;-75
2023/02/12 00:11:58;;;;;;;30.00;13.40;;;;;;;7.28;100.00;102834.36;107776;1254;71023;-77
2023/02/12 00:14:25;;;;;;;28.90;12.70;;;;;;;7.27;100.00;102831.61;108190;1252;60948;-76
2023/02/12 00:16:51;;;;;;;24.20;12.90;;;;;;;7.25;100.00;102834.25;109127;1253;59283;-76
2023/02/12 00:19:18;;;;;;;23.40;12.50;;;;;;;7.24;100.00;102841.48;108814;1254;72323;-77
2023/02/12 00:21:45;;;;;;;21.80;12.20;;;;;;;7.25;100.00;102852.89;108453;1253;70399;-75
2023/02/12 00:24:12;;;;;;;26.30;12.50;;;;;;;7.26;100.00;102853.69;107626;1253;73194;-77
2023/02/12 00:26:39;;;;;;;23.20;11.70;;;;;;;7.26;100.00;102857.59;107511;1253;60916;-76
2023/02/12 00:29:06;;;;;;;25.60;12.30;;;;;;;7.25;100.00;102858.33;107547;1251;59443;-79
2023/02/12 00:31:33;;;;;;;22.80;12.30;;;;;;;7.24;100.00;102859.77;107748;1254;74189;-75
2023/02/12 00:34:01;;;;;;;27.50;12.80;;;;;;;7.26;100.00;102858.96;107401;1254;72085;-75
2023/02/12 00:36:29;;;;;;;26.50;12.30;;;;;;;7.25;100.00;102856.71;108691;1255;71685;-75
2023/02/12 00:38:56;;;;;;;26.50;13.10;;;;;;;7.25;100.00;102854.41;108790;1259;59765;-75
2023/02/12 00:41:24;;;;;;;29.50;13.20;;;;;;;7.26;100.00;102853.48;107425;1253;60345;-75
2023/02/12 00:43:52;;;;;;;27.60;13.30;;;;;;;7.28;100.00;102850.59;108795;1253;73865;-76
2023/02/12 00:46:19;;;;;;;25.00;12.30;;;;;;;7.26;100.00;102852.77;108439;1254;69911;-76
2023/02/12 00:48:47;;;;;;;23.80;11.90;;;;;;;7.27;100.00;102852.23;109292;1253;71017;-76
2023/02/12 00:51:14;;;;;;;30.10;13.90;;;;;;;7.27;100.00;102853.64;107747;1255;60964;-76
2023/02/12 00:53:41;;;;;;;26.50;13.20;;;;;;;7.28;100.00;102857.64;108465;1254;60153;-77
2023/02/12 00:56:08;;;;;;;28.20;13.40;;;;;;;7.28;100.00;102859.03;108633;1252;72676;-76
2023/02/12 00:58:35;;;;;;;26.10;13.30;;;;;;;7.27;100.00;102860.65;107602;1254;71167;-76
2023/02/12 01:01:03;;;;;;;25.60;13.90;;;;;;;7.27;100.00;102860.31;107611;1252;72684;-75
2023/02/12 01:03:30;;;;;;;23.80;13.90;;;;;;;7.26;100.00;102863.38;107347;1255;60521;-78
2023/02/12 01:05:57;;;;;;;28.20;14.20;;;;;;;7.24;100.00;102861.23;107804;1256;61515;-75
2023/02/12 01:08:25;;;;;;;28.60;13.70;;;;;;;7.23;100.00;102862.01;107359;1258;73866;-75
2023/02/12 01:11:01;;;;;;;25.10;13.60;;;;;;;7.18;100.00;102870.36;107447;1256;70639;-75
2023/02/12 01:13:30;;;;;;;27.50;13.40;;;;;;;7.19;100.00;102868.41;107574;1253;70627;-76
2023/02/12 01:16:07;;;;;;;25.90;13.10;;;;;;;7.18;100.00;102870.03;107380;1253;60530;-76
2023/02/12 01:18:36;;;;;;;22.50;13.60;;;;;;;7.19;100.00;102872.27;107272;1254;60450;-75
2023/02/12 01:21:18;;;;;;;25.60;13.60;;;;;;;7.17;100.00;102874.52;107263;1258;73867;-76
2023/02/12 01:23:45;;;;;;;26.20;12.50;;;;;;;7.15;100.00;102872.35;107464;1253;71634;-75
2023/02/12 01:26:14;;;;;;;23.70;12.30;;;;;;;7.09;100.00;102869.00;107149;1254;71605;-76
2023/02/12 01:28:43;;;;;;;27.40;14.40;;;;;;;7.10;100.00;102867.07;107339;1257;60487;-76
2023/02/12 01:31:14;;;;;;;30.40;13.40;;;;;;;7.08;100.00;102865.42;107541;1257;59260;-76
2023/02/12 01:33:42;;;;;;;28.20;13.00;;;;;;;7.08;100.00;102867.84;107521;1257;75502;-77
2023/02/12 01:36:10;;;;;;;24.20;11.40;;;;;;;7.08;100.00;102873.35;107541;1254;72132;-76
2023/02/12 01:38:37;;;;;;;26.30;13.80;;;;;;;7.05;100.00;102871.77;107276;1254;71552;-75
2023/02/12 01:41:07;;;;;;;28.30;14.70;;;;;;;7.03;100.00;102874.52;107745;1252;60435;-76
2023/02/12 01:43:35;;;;;;;27.00;13.80;;;;;;;7.03;100.00;102875.10;107394;1254;61078;-75
2023/02/12 01:46:03;;;;;;;27.50;14.70;;;;;;;7.04;100.00;102873.58;107464;1256;71690;-77
2023/02/12 01:48:35;;;;;;;29.80;16.00;;;;;;;7.04;100.00;102876.92;107552;1253;71130;-76
2023/02/12 01:51:03;;;;;;;35.40;18.20;;;;;;;7.03;100.00;102874.89;107719;1252;71823;-77
2023/02/12 01:53:39;;;;;;;31.90;15.80;;;;;;;7.05;100.00;102874.57;107478;1254;61429;-74
2023/02/12 01:56:08;;;;;;;32.40;15.70;;;;;;;7.08;100.00;102867.71;107433;1252;60312;-75
2023/02/12 01:58:39;;;;;;;30.20;15.10;;;;;;;7.08;100.00;102870.52;107376;1253;74086;-77
2023/02/12 02:01:10;;;;;;;29.20;15.00;;;;;;;7.10;100.00;102866.38;107412;1254;69708;-75
2023/02/12 02:03:38;;;;;;;29.50;15.50;;;;;;;7.10;100.00;102865.83;107376;1255;72785;-75
2023/02/12 02:06:08;;;;;;;29.30;15.40;;;;;;;7.08;100.00;102867.55;107608;1254;61308;-77
2023/02/12 02:08:35;;;;;;;24.50;14.30;;;;;;;7.04;100.00;102872.34;107480;1254;60454;-74
2023/02/12 02:14:31;;;;;;;33.60;16.20;;;;;;;7.05;100.00;102870.36;107283;1252;72507;-76
2023/02/12 02:16:39;;;;;;;30.10;16.60;;;;;;;7.04;100.00;102871.14;107284;1254;71662;-76
2023/02/12 02:19:27;;;;;;;27.30;15.90;;;;;;;7.04;100.00;102870.21;107575;1252;61936;-76
2023/02/12 02:22:33;;;;;;;32.60;16.70;;;;;;;7.02;100.00;102870.39;107751;1254;60549;-76
2023/02/12 02:25:20;;;;;;;29.90;16.80;;;;;;;7.01;100.00;102866.89;107019;1261;72906;-77
2023/02/12 02:27:54;;;;;;;33.50;17.90;;;;;;;7.02;100.00;102864.40;107312;1254;69859;-76
2023/02/12 02:30:23;;;;;;;34.30;18.20;;;;;;;7.01;100.00;102866.08;107537;1252;72312;-78
2023/02/12 02:33:10;;;;;;;33.20;18.10;;;;;;;7.00;100.00;102869.48;107284;1254;60598;-75
2023/02/12 02:35:51;;;;;;;30.70;19.40;;;;;;;7.00;100.00;102865.21;107320;1254;60400;-76
2023/02/12 02:39:03;;;;;;;33.40;19.40;;;;;;;7.00;100.00;102865.78;107216;1254;75372;-76
2023/02/12 02:41:53;;;;;;;29.60;18.40;;;;;;;7.01;100.00;102866.77;107628;1251;70386;-76
2023/02/12 02:44:31;;;;;;;33.50;19.50;;;;;;;7.00;100.00;102870.36;107488;1254;72030;-75
2023/02/12 02:47:00;;;;;;;32.60;18.80;;;;;;;6.99;100.00;102871.10;107270;1257;60486;-76
2023/02/12 02:49:35;;;;;;;37.00;21.30;;;;;;;6.99;100.00;102868.80;107416;1255;60520;-77
2023/02/12 02:52:10;;;;;;;38.50;22.00;;;;;;;6.99;100.00;102867.42;107657;1254;73914;-76
2023/02/12 02:55:01;;;;;;;38.40;20.80;;;;;;;6.99;100.00;102863.55;107472;1252;71135;-75
2023/02/12 02:57:34;;;;;;;31.70;19.20;;;;;;;6.99;100.00;102863.91;107319;1254;72402;-75
2023/02/12 03:00:10;;;;;;;35.30;20.20;;;;;;;7.02;100.00;102865.48;107710;1254;60921;-76
2023/02/12 03:02:43;;;;;;;32.20;19.30;;;;;;;7.01;100.00;102869.77;107139;1260;59390;-77
2023/02/12 03:05:18;;;;;;;34.20;19.00;;;;;;;7.00;100.00;102865.80;107353;1254;73568;-75
2023/02/12 03:07:52;;;;;;;31.90;19.30;;;;;;;7.02;100.00;102872.35;107266;1254;68967;-75
2023/02/12 03:10:24;;;;;;;28.10;19.50;;;;;;;7.02;100.00;102867.56;107071;1252;74164;-76
2023/02/12 03:13:06;;;;;;;29.90;18.90;;;;;;;7.03;100.00;102867.86;107320;1254;60955;-77
2023/02/12 03:15:48;;;;;;;29.10;17.40;;;;;;;7.03;100.00;102874.21;107395;1254;60619;-76
2023/02/12 03:18:21;;;;;;;24.90;16.90;;;;;;;7.02;100.00;102873.20;107725;1257;73878;-76
2023/02/12 03:20:53;;;;;;;31.40;17.60;;;;;;;7.01;100.00;102872.54;107318;1253;69787;-78
2023/02/12 03:23:27;;;;;;;24.20;16.30;;;;;;;7.04;100.00;102877.83;107462;1252;70185;-79
2023/02/12 03:26:02;;;;;;;23.10;15.90;;;;;;;7.03;100.00;102882.45;107476;1257;60931;-75
2023/02/12 03:28:32;;;;;;;28.20;17.10;;;;;;;7.04;100.00;102885.22;107347;1257;58539;-76
2023/02/12 03:31:11;;;;;;;30.30;17.50;;;;;;;7.05;100.00;102887.25;107414;1252;73742;-77
2023/02/12 03:33:49;;;;;;;24.00;16.80;;;;;;;7.03;100.00;102895.64;107554;1253;70872;-75
2023/02/12 03:36:44;;;;;;;26.30;16.40;;;;;;;7.04;100.00;102893.63;107892;1254;73173;-75
2023/02/12 03:39:48;;;;;;;25.50;16.60;;;;;;;7.06;100.00;102900.88;107557;1254;61022;-74
2023/02/12 03:42:33;;;;;;;23.10;16.40;;;;;;;7.06;100.00;102903.34;107382;1254;60345;-76
2023/02/12 03:45:14;;;;;;;26.90;16.90;;;;;;;7.08;100.00;102907.12;107209;1254;75259;-75
2023/02/12 03:48:19;;;;;;;29.20;17.20;;;;;;;7.10;100.00;102911.90;108324;1254;71262;-75
2023/02/12 03:51:09;;;;;;;24.00;15.30;;;;;;;7.08;100.00;102920.00;108650;1253;71598;-75
2023/02/12 03:53:36;;;;;;;23.80;15.60;;;;;;;7.08;100.00;102925.96;107989;1253;60920;-77
2023/02/12 03:56:16;;;;;;;20.90;13.80;;;;;;;7.06;100.00;102926.41;108378;1253;59100;-76
2023/02/12 03:58:44;;;;;;;20.30;13.90;;;;;;;7.04;100.00;102923.59;107377;1251;72410;-75
2023/02/12 04:01:12;;;;;;;21.60;12.20;;;;;;;7.01;100.00;102924.23;107543;1253;71010;-75
2023/02/12 04:03:40;;;;;;;15.60;11.00;;;;;;;7.01;100.00;102926.73;107302;1252;71251;-75
2023/02/12 04:06:23;;;;;;;23.50;12.10;;;;;;;7.01;100.00;102929.75;107417;1252;61046;-75
2023/02/12 04:08:50;;;;;;;16.30;11.00;;;;;;;7.01;100.00;102934.15;107187;1254;60769;-75
2023/02/12 04:11:58;;;;;;;14.40;10.10;;;;;;;7.01;100.00;102935.19;107701;1252;74965;-76
2023/02/12 04:14:33;;;;;;;16.30;10.10;;;;;;;7.02;100.00;102934.63;107520;1252;70034;-76
2023/02/12 04:17:10;;;;;;;13.20;8.80;;;;;;;7.01;100.00;102935.04;107409;1252;74214;-76
2023/02/12 04:19:57;;;;;;;16.60;9.40;;;;;;;6.98;100.00;102933.61;107466;1252;62333;-77
2023/02/12 04:22:48;;;;;;;15.10;9.30;;;;;;;6.98;100.00;102936.44;107515;1252;60410;-76
2023/02/12 04:26:01;;;;;;;14.60;9.00;;;;;;;6.97;100.00;102939.16;107285;1253;72416;-78
2023/02/12 04:28:59;;;;;;;13.20;8.60;;;;;;;6.96;100.00;102943.59;107512;1253;69748;-77
2023/02/12 04:31:37;;;;;;;14.00;8.80;;;;;;;6.94;100.00;102946.17;107481;1252;72533;-75
2023/02/12 04:34:11;;;;;;;13.90;9.00;;;;;;;6.94;100.00;102946.70;107186;1253;61406;-76
2023/02/12 04:36:48;;;;;;;12.40;8.60;;;;;;;6.93;100.00;102951.15;107306;1252;60447;-76
2023/02/12 04:39:20;;;;;;;14.40;9.10;;;;;;;6.94;100.00;102956.36;107373;1252;72080;-75
2023/02/12 04:41:48;;;;;;;13.10;8.70;;;;;;;6.94;100.00;102958.67;107158;1253;71236;-75
2023/02/12 04:44:30;;;;;;;13.00;9.10;;;;;;;6.93;100.00;102959.95;107494;1253;71504;-75
2023/02/12 04:46:57;;;;;;;16.60;9.40;;;;;;;6.93;100.00;102964.34;107336;1253;60496;-74
2023/02/12 04:49:25;;;;;;;15.80;9.10;;;;;;;6.92;100.00;102960.17;107480;1253;60436;-75
2023/02/12 04:51:52;;;;;;;15.90;9.50;;;;;;;6.90;100.00;102965.73;107560;1252;75484;-74
2023/02/12 04:54:20;;;;;;;15.90;8.70;;;;;;;6.90;100.00;102964.14;107497;1253;69645;-75
2023/02/12 04:56:48;;;;;;;15.70;10.20;;;;;;;6.93;100.00;102964.00;107379;1258;71309;-75
2023/02/12 04:59:15;;;;;;;16.00;10.20;;;;;;;6.93;100.00;102964.84;107587;1256;60488;-76
2023/02/12 05:01:43;;;;;;;15.30;9.90;;;;;;;6.95;100.00;102964.38;107136;1257;60424;-76
2023/02/12 05:04:12;;;;;;;16.60;10.10;;;;;;;6.95;100.00;102963.86;107813;1252;73982;-75
2023/02/12 05:06:40;;;;;;;15.10;8.90;;;;;;;6.92;100.00;102967.52;107308;1253;69827;-75
2023/02/12 05:09:09;;;;;;;17.10;10.40;;;;;;;6.92;100.00;102969.66;107395;1253;71129;-76
2023/02/12 05:11:36;;;;;;;15.20;9.80;;;;;;;6.93;100.00;102967.66;107151;1252;60771;-75
2023/02/12 05:14:03;;;;;;;14.80;9.60;;;;;;;6.93;100.00;102962.41;107479;1252;60537;-79
2023/02/12 05:16:30;;;;;;;14.90;10.20;;;;;;;6.90;100.00;102968.05;107406;1252;75704;-76
2023/02/12 05:18:57;;;;;;;16.90;10.30;;;;;;;6.90;100.00;102967.51;107377;1252;71066;-75
2023/02/12 05:21:24;;;;;;;18.60;10.80;;;;;;;6.89;100.00;102968.80;107200;1256;71171;-75
2023/02/12 05:23:51;;;;;;;15.60;10.10;;;;;;;6.90;100.00;102970.50;107734;1253;60208;-76
2023/02/12 05:26:20;;;;;;;15.40;10.40;;;;;;;6.92;100.00;102966.14;107474;1252;60339;-76
2023/02/12 05:28:48;;;;;;;16.10;10.30;;;;;;;6.94;100.00;102967.28;107735;1253;73747;-76
2023/02/12 05:31:21;;;;;;;14.60;9.90;;;;;;;6.96;100.00;102965.21;107312;1252;71365;-73
2023/02/12 05:33:49;;;;;;;18.00;10.40;;;;;;;6.96;100.00;102963.98;107633;1253;71354;-76
2023/02/12 05:36:21;;;;;;;17.90;10.40;;;;;;;6.98;100.00;102966.71;107177;1254;60785;-75
2023/02/12 05:38:49;;;;;;;18.00;11.30;;;;;;;6.99;100.00;102966.31;107316;1253;60445;-75
2023/02/12 05:41:18;;;;;;;18.50;11.30;;;;;;;6.96;100.00;102968.24;107944;1252;71363;-75
2023/02/12 05:43:45;;;;;;;20.00;11.80;;;;;;;6.94;100.00;102969.73;107808;1252;69852;-75
2023/02/12 05:46:16;;;;;;;19.80;11.30;;;;;;;6.93;100.00;102971.35;107067;1251;768646;-75
2023/02/12 05:48:43;;;;;;;18.60;11.40;;;;;;;6.93;100.00;102970.48;107468;1251;60451;-75
2023/02/12 05:51:30;;;;;;;;;;;;;;;;;;;;;
2023/02/12 05:53:59;;;;;;;17.80;12.10;;;;;;;6.94;100.00;102976.95;107294;1254;74138;-74
2023/02/12 05:56:32;;;;;;;19.90;12.10;;;;;;;6.94;100.00;102977.81;107394;1251;69195;-75
2023/02/12 05:59:02;;;;;;;19.40;12.50;;;;;;;6.93;100.00;102974.16;107276;1253;71153;-76
2023/02/12 06:01:32;;;;;;;21.60;13.20;;;;;;;6.94;100.00;102975.00;107473;1253;61085;-76
2023/02/12 06:04:01;;;;;;;22.40;13.70;;;;;;;6.95;100.00;102977.93;107417;1252;60372;-76
2023/02/12 06:06:29;;;;;;;27.90;14.70;;;;;;;6.96;100.00;102977.02;107383;1253;75054;-75
2023/02/12 06:08:56;;;;;;;25.70;14.40;;;;;;;6.97;100.00;102975.02;107299;1253;71282;-76
2023/02/12 06:11:24;;;;;;;25.00;14.50;;;;;;;6.97;100.00;102974.66;107322;1254;72825;-76
2023/02/12 06:13:51;;;;;;;25.10;14.60;;;;;;;6.97;100.00;102982.59;107277;1253;60835;-79
2023/02/12 06:16:25;;;;;;;25.80;14.20;;;;;;;6.96;100.00;102979.13;107952;1253;59879;-75
2023/02/12 06:18:53;;;;;;;26.10;14.50;;;;;;;6.93;100.00;102980.66;107455;1252;72768;-76
2023/02/12 06:21:22;;;;;;;28.50;15.00;;;;;;;6.89;100.00;102983.77;107730;1252;70921;-75
2023/02/12 06:23:49;;;;;;;28.20;14.50;;;;;;;6.87;100.00;102985.83;107474;1253;71139;-74
2023/02/12 06:26:16;;;;;;;30.80;14.40;;;;;;;6.83;100.00;102985.36;107598;1253;60976;-75
2023/02/12 06:28:44;;;;;;;24.10;12.80;;;;;;;6.80;100.00;102985.36;107345;1253;60462;-76
2023/02/12 06:31:27;;;;;;;32.50;15.10;;;;;;;6.77;100.00;102988.17;107856;1253;72390;-75
2023/02/12 06:33:55;;;;;;;29.80;14.10;;;;;;;6.74;100.00;102988.19;107736;1252;70907;-75
2023/02/12 06:36:23;;;;;;;33.20;16.10;;;;;;;6.72;100.00;102990.41;107519;1256;71909;-80
2023/02/12 06:38:50;;;;;;;34.60;16.30;;;;;;;6.72;100.00;102993.03;107363;1254;60359;-76
2023/02/12 06:41:18;;;;;;;34.50;16.20;;;;;;;6.72;100.00;102993.59;107719;1253;60480;-75
2023/02/12 06:43:44;;;;;;;30.20;14.50;;;;;;;6.73;100.00;102997.37;107490;1252;72334;-74
2023/02/12 06:46:12;;;;;;;27.80;14.90;;;;;;;6.75;100.00;102993.23;107749;1253;72489;-77
2023/02/12 06:48:39;;;;;;;31.60;15.60;;;;;;;6.76;100.00;102997.42;108538;1252;71139;-75
2023/02/12 06:51:12;;;;;;;29.60;15.50;;;;;;;6.77;100.00;102999.27;107636;1253;61358;-76
2023/02/12 06:53:39;;;;;;;31.30;15.10;;;;;;;6.76;100.00;103003.23;107975;1252;59333;-75
2023/02/12 06:56:11;;;;;;;31.40;14.60;;;;;;;6.73;100.00;103007.39;107519;1253;73775;-75
2023/02/12 06:58:42;;;;;;;31.80;15.50;;;;;;;6.73;100.00;103005.85;107768;1253;71080;-74
2023/02/12 07:01:16;;;;;;;26.50;13.50;;;;;;;6.74;100.00;103011.42;107615;1253;72874;-74
2023/02/12 07:03:48;;;;;;;28.30;14.70;;;;;;;6.74;100.00;103015.65;107452;1253;61899;-74
2023/02/12 07:06:15;;;;;;;27.60;15.10;;;;;;;6.73;100.00;103019.73;107590;1253;61343;-75
2023/02/12 07:08:42;;;;;;;28.80;15.10;;;;;;;6.73;100.00;103023.23;107666;1251;71885;-75
2023/02/12 07:11:09;;;;;;;25.80;14.30;;;;;;;6.71;100.00;103022.13;107762;1253;69995;-75
2023/02/12 07:13:36;;;;;;;27.30;14.30;;;;;;;6.72;100.00;103025.95;107579;1253;72678;-74
2023/02/12 07:16:08;;;;;;;24.20;13.70;;;;;;;6.73;100.00;103024.83;107714;1252;60606;-75
2023/02/12 07:18:36;;;;;;;25.40;13.80;;;;;;;6.76;100.00;103027.14;107548;1255;60774;-75
2023/02/12 07:21:04;;;;;;;26.60;14.70;;;;;;;6.78;100.00;103024.70;107699;1252;72347;-76
2023/02/12 07:23:32;;;;;;;23.90;13.60;;;;;;;6.81;100.00;103027.17;107822;1253;69657;-74
2023/02/12 07:26:10;;;;;;;22.50;13.40;;;;;;;6.83;100.00;103025.46;107357;1253;73663;-76
2023/02/12 07:28:38;;;;;;;26.70;14.70;;;;;;;6.88;100.00;103028.37;107517;1252;60515;-74
2023/02/12 07:31:07;;;;;;;23.10;13.50;;;;;;;6.91;100.00;103032.89;107361;1253;60404;-75
2023/02/12 07:33:35;;;;;;;24.80;14.40;;;;;;;6.94;100.00;103035.67;107556;1252;73944;-77
2023/02/12 07:36:04;;;;;;;23.10;13.40;;;;;;;6.96;100.00;103038.04;107757;1252;69504;-76
2023/02/12 07:38:31;;;;;;;22.50;12.70;;;;;;;6.99;100.00;103039.31;107357;1254;73820;-75
2023/02/12 07:41:20;;;;;;;22.80;13.30;;;;;;;7.02;100.00;103036.14;107731;1252;60905;-74
2023/02/12 07:43:52;;;;;;;22.00;13.20;;;;;;;7.04;100.00;103041.27;107462;1252;60414;-74
2023/02/12 07:46:22;;;;;;;24.80;14.30;;;;;;;7.04;100.00;103039.15;107625;1253;73951;-76
2023/02/12 07:48:50;;;;;;;23.80;14.10;;;;;;;7.07;100.00;103032.26;107434;1252;72582;-75
2023/02/12 07:51:20;;;;;;;23.20;15.00;;;;;;;7.07;100.00;103038.06;107366;1251;71719;-75
2023/02/12 07:53:48;;;;;;;30.70;16.70;;;;;;;7.03;100.00;103039.91;107566;1254;61172;-74
2023/02/12 07:56:28;;;;;;;28.80;14.50;;;;;;;7.03;100.00;103040.09;107412;1253;60424;-73
2023/02/12 07:58:55;;;;;;;31.50;16.30;;;;;;;7.06;100.00;103041.15;108038;1252;72657;-76
2023/02/12 08:01:30;;;;;;;29.80;15.90;;;;;;;7.09;100.00;103040.81;107497;1252;71340;-75
2023/02/12 08:04:02;;;;;;;30.30;15.10;;;;;;;7.12;100.00;103037.94;107609;1253;72674;-75
2023/02/12 08:06:33;;;;;;;27.90;15.10;;;;;;;7.18;100.00;103042.88;107653;1253;60947;-75
2023/02/12 08:09:03;;;;;;;30.30;15.70;;;;;;;7.19;100.00;103040.16;107264;1253;60451;-77
2023/02/12 08:11:31;;;;;;;34.70;18.50;;;;;;;7.23;100.00;103039.73;108298;1253;75504;-75
2023/02/12 08:13:59;;;;;;;33.30;18.00;;;;;;;7.26;100.00;103045.52;109189;1253;69697;-75
2023/02/12 08:16:27;;;;;;;30.30;15.60;;;;;;;7.30;100.00;103048.09;107493;1253;72541;-76
2023/02/12 08:18:55;;;;;;;26.50;14.90;;;;;;;7.30;100.00;103045.61;107256;1253;61567;-77
2023/02/12 08:21:33;;;;;;;26.50;14.10;;;;;;;7.37;100.00;103049.79;107045;1252;60553;-74
2023/02/12 08:24:00;;;;;;;23.10;13.50;;;;;;;7.39;100.00;103053.92;107197;1252;74422;-77
2023/02/12 08:26:36;;;;;;;24.80;13.30;;;;;;;7.44;100.00;103054.30;107600;1253;69935;-76
2023/02/12 08:29:05;;;;;;;20.80;12.30;;;;;;;7.48;100.00;103060.17;107258;1252;71123;-75
2023/02/12 08:31:35;;;;;;;21.10;12.30;;;;;;;7.54;100.00;103063.65;106948;1252;60442;-76
2023/02/12 08:34:03;;;;;;;22.20;12.10;;;;;;;7.57;100.00;103065.77;107670;1252;60399;-75
2023/02/12 08:36:37;;;;;;;21.40;12.20;;;;;;;7.61;100.00;103072.58;107716;1252;72394;-77
2023/02/12 08:39:05;;;;;;;21.50;12.80;;;;;;;7.66;100.00;103073.50;107461;1252;69681;-74
2023/02/12 08:41:33;;;;;;;24.60;13.40;;;;;;;7.68;100.00;103075.10;107904;1252;72433;-74
2023/02/12 08:44:02;;;;;;;20.70;12.80;;;;;;;7.68;100.00;103080.08;108077;1253;61580;-74
2023/02/12 08:46:34;;;;;;;19.30;11.30;;;;;;;7.70;100.00;103080.29;109121;1252;58844;-74
2023/02/12 08:49:05;;;;;;;21.50;12.40;;;;;;;7.72;100.00;103080.30;109018;1253;72763;-75
2023/02/12 08:51:37;;;;;;;22.00;13.30;;;;;;;7.76;100.00;103075.10;107369;1252;70475;-76
2023/02/12 08:54:06;;;;;;;22.20;14.10;;;;;;;7.81;100.00;103078.69;107340;1251;71209;-76
2023/02/12 08:56:34;;;;;;;23.10;14.00;;;;;;;7.82;100.00;103081.27;107246;1254;60449;-75
2023/02/12 08:59:04;;;;;;;24.60;13.80;;;;;;;7.82;100.00;103084.13;107026;1253;60404;-75
2023/02/12 09:01:33;;;;;;;23.00;12.70;;;;;;;7.85;100.00;103091.69;107236;1252;73888;-74
2023/02/12 09:04:00;;;;;;;23.70;13.90;;;;;;;7.78;100.00;103098.25;107532;1252;70906;-74
2023/02/12 09:06:27;;;;;;;24.30;14.20;;;;;;;7.77;100.00;103099.41;107457;1252;72804;-75
2023/02/12 09:08:54;;;;;;;25.90;14.10;;;;;;;7.77;100.00;103096.74;107217;1257;60429;-75
2023/02/12 09:11:29;;;;;;;24.80;14.50;;;;;;;7.75;100.00;103104.95;107586;1252;60512;-73
2023/02/12 09:14:09;;;;;;;28.10;14.90;;;;;;;7.74;100.00;103105.90;107423;1252;73860;-74
2023/02/12 09:16:38;;;;;;;22.70;12.70;;;;;;;7.76;100.00;103101.53;107301;1252;69744;-75
2023/02/12 09:19:06;;;;;;;27.00;14.90;;;;;;;7.76;100.00;103104.52;107389;1253;72410;-74
2023/02/12 09:21:33;;;;;;;27.60;15.50;;;;;;;7.80;100.00;103108.02;107691;1253;60504;-74
2023/02/12 09:24:02;;;;;;;27.20;14.90;;;;;;;7.86;100.00;103110.11;107349;1254;60890;-74
2023/02/12 09:26:29;;;;;;;25.80;14.50;;;;;;;7.89;100.00;103111.98;107160;1253;73714;-74
2023/02/12 09:28:56;;;;;;;26.10;13.90;;;;;;;7.89;100.00;103116.06;107538;1253;69393;-74
2023/02/12 09:31:25;;;;;;;25.50;14.10;;;;;;;7.87;100.00;103118.48;107424;1253;71225;-75
2023/02/12 09:34:01;;;;;;;27.30;14.40;;;;;;;7.86;100.00;103119.59;107216;1253;61150;-74
2023/02/12 09:36:28;;;;;;;26.50;14.00;;;;;;;7.89;100.00;103118.16;107139;1253;61055;-72
2023/02/12 09:38:58;;;;;;;25.60;12.60;;;;;;;7.95;100.00;103118.00;107794;1253;74233;-75
2023/02/12 09:41:49;;;;;;;26.40;12.80;;;;;;;7.95;100.00;103122.20;107512;1252;71081;-75
2023/02/12 09:44:26;;;;;;;26.70;13.30;;;;;;;7.92;100.00;103124.69;107521;1255;71155;-76
2023/02/12 09:47:30;;;;;;;25.80;13.40;;;;;;;7.90;100.00;103125.52;107495;1252;62246;-75
2023/02/12 09:50:15;;;;;;;25.90;12.80;;;;;;;7.86;100.00;103126.30;107429;1252;60453;-75
2023/02/12 09:52:43;;;;;;;27.00;14.60;;;;;;;7.79;100.00;103130.95;107192;1253;73810;-75
2023/02/12 09:55:15;;;;;;;27.80;13.80;;;;;;;7.76;100.00;103135.02;107484;1252;71457;-75
2023/02/12 09:57:45;;;;;;;26.10;13.40;;;;;;;7.77;100.00;103130.75;107565;1252;71305;-77
2023/02/12 10:00:26;;;;;;;24.50;13.70;;;;;;;7.76;100.00;103132.54;107194;1254;60893;-76
2023/02/12 10:03:00;;;;;;;23.80;13.50;;;;;;;7.80;100.00;103129.52;107290;1251;60562;-77
2023/02/12 10:05:38;;;;;;;24.60;12.60;;;;;;;7.84;100.00;103131.73;107506;1252;74586;-76
2023/02/12 10:08:24;;;;;;;25.10;13.20;;;;;;;7.87;100.00;103135.06;107368;1252;70931;-75
2023/02/12 10:11:11;;;;;;;25.70;12.10;;;;;;;7.92;100.00;103132.26;107259;1253;71637;-76
2023/02/12 10:14:16;;;;;;;24.60;12.70;;;;;;;7.96;100.00;103138.86;107449;1252;60348;-76
2023/02/12 10:16:55;;;;;;;27.30;13.40;;;;;;;8.01;100.00;103137.72;107718;1253;60890;-77
2023/02/12 10:19:48;;;;;;;23.70;12.30;;;;;;;8.06;100.00;103142.81;107306;1252;72326;-74
2023/02/12 10:22:30;;;;;;;20.90;11.40;;;;;;;8.08;100.00;103143.39;107454;1252;71954;-76
2023/02/12 10:25:13;;;;;;;21.80;12.20;;;;;;;8.05;100.00;103144.80;107462;1252;72336;-78
2023/02/12 10:27:50;;;;;;;19.80;11.20;;;;;;;8.03;100.00;103146.86;107342;1253;60522;-76
2023/02/12 10:30:40;;;;;;;21.90;12.20;;;;;;;8.02;100.00;103144.66;107503;1253;60157;-77
2023/02/12 10:33:15;;;;;;;22.40;12.30;;;;;;;8.03;100.00;103142.27;107734;1252;72350;-76
2023/02/12 10:35:57;;;;;;;24.20;13.50;;;;;;;8.05;100.00;103140.06;107453;1253;69992;-76
2023/02/12 10:38:31;;;;;;;21.10;12.00;;;;;;;8.11;100.00;103140.24;107315;1252;72046;-77
2023/02/12 10:41:00;;;;;;;21.50;11.70;;;;;;;8.12;100.00;103142.07;107629;1252;60444;-76
2023/02/12 10:43:28;;;;;;;18.90;12.00;;;;;;;8.13;100.00;103142.92;107437;1253;60373;-76
2023/02/12 10:45:55;;;;;;;19.50;12.50;;;;;;;8.14;100.00;103144.25;107112;1253;71740;-77
2023/02/12 10:48:34;;;;;;;19.40;11.90;;;;;;;8.16;100.00;103142.70;107486;1257;71933;-78
2023/02/12 10:51:06;;;;;;;19.40;12.20;;;;;;;8.17;100.00;103144.61;107444;1253;73415;-78
2023/02/12 10:53:41;;;;;;;18.80;11.70;;;;;;;8.20;100.00;103143.04;107612;1251;60446;-76
2023/02/12 10:56:16;;;;;;;21.00;12.10;;;;;;;8.25;100.00;103145.87;107399;1253;61472;-77
2023/02/12 10:58:49;;;;;;;18.10;11.80;;;;;;;8.29;100.00;103145.94;107529;1252;72206;-77
2023/02/12 11:01:30;;;;;;;16.60;10.80;;;;;;;8.30;100.00;103145.36;107482;1253;69925;-78
2023/02/12 11:03:58;;;;;;;15.80;10.50;;;;;;;8.30;100.00;103139.02;107401;1253;73553;-76
2023/02/12 11:06:32;;;;;;;17.10;10.70;;;;;;;8.32;100.00;103136.02;107163;1253;62106;-78
2023/02/12 11:08:59;;;;;;;15.40;10.50;;;;;;;8.35;100.00;103138.66;107587;1251;60577;-74
2023/02/12 11:11:35;;;;;;;14.00;10.10;;;;;;;8.38;100.00;103138.60;108283;1253;72325;-76
2023/02/12 11:14:18;;;;;;;15.60;10.20;;;;;;;8.40;99.97;103133.58;108170;1251;70313;-78
2023/02/12 11:16:56;;;;;;;14.30;10.50;;;;;;;8.48;100.00;103128.84;108769;1252;72705;-75
2023/02/12 11:19:25;;;;;;;16.30;10.90;;;;;;;8.53;99.96;103127.06;107555;1252;60333;-75
2023/02/12 11:22:03;;;;;;;15.80;10.80;;;;;;;8.60;99.91;103126.48;108565;1253;60435;-75
2023/02/12 11:24:33;;;;;;;14.40;10.30;;;;;;;8.68;99.61;103127.92;107334;1252;72733;-78
2023/02/12 11:27:24;;;;;;;14.00;10.30;;;;;;;8.70;98.96;103130.02;107387;1260;69618;-76
2023/02/12 11:30:09;;;;;;;15.00;10.80;;;;;;;8.77;98.98;103124.65;107762;1252;72058;-77
2023/02/12 11:32:36;;;;;;;15.40;11.00;;;;;;;8.87;98.83;103123.11;107359;1252;60502;-75
2023/02/12 11:35:11;;;;;;;14.90;10.70;;;;;;;8.92;98.01;103116.56;107207;1252;59116;-77